Time;durP1;ratioP1;P1;durP2;ratioP2;P2;SDS_P1;SDS_P2;PMS_P1;PMS_P2;Temp;Humidity;BMP_temperature;BMP_pressure;BME280_temperature;BME280_humidity;BME280_pressure;Samples;Min_cycle;Max_cycle;Signal;HPM_P1;HPM_P2
2022/12/24 00:00:18;;;;;;;45.97;17.52;;;;;;;;;;5022498;28;20167;-78
2022/12/24 00:02:44;;;;;;;43.13;17.13;;;;;;;;;;5019482;28;20492;-78
2022/12/24 00:05:16;;;;;;;40.13;16.75;;;;;;;;;;5021236;28;20508;-78
2022/12/24 00:07:43;;;;;;;32.72;15.80;;;;;;;;;;5017460;28;20595;-77
2022/12/24 00:10:09;;;;;;;39.17;17.40;;;;;;;;;;5019501;28;20956;-78
2022/12/24 00:12:36;;;;;;;35.45;16.85;;;;;;;;;;5017182;28;20139;-77
2022/12/24 00:15:03;;;;;;;40.83;17.45;;;;;;;;;;5019060;28;20048;-77
2022/12/24 00:17:29;;;;;;;36.50;17.02;;;;;;;;;;5021438;28;20051;-77
2022/12/24 00:19:55;;;;;;;35.15;15.73;;;;;;;;;;5020938;28;20072;-78
2022/12/24 00:22:21;;;;;;;42.10;17.08;;;;;;;;;;5019228;28;20041;-78
2022/12/24 00:24:47;;;;;;;38.42;16.38;;;;;;;;;;5021495;28;20503;-78
2022/12/24 00:27:13;;;;;;;38.97;17.05;;;;;;;;;;5020597;28;20041;-78
2022/12/24 00:29:39;;;;;;;43.42;17.35;;;;;;;;;;5020196;28;20037;-77
2022/12/24 00:32:09;;;;;;;46.10;18.55;;;;;;;;;;5016472;28;20045;-77
2022/12/24 00:34:38;;;;;;;42.70;17.90;;;;;;;;;;5017936;28;20037;-77
2022/12/24 00:37:05;;;;;;;45.50;18.13;;;;;;;;;;5017434;28;20546;-78
2022/12/24 00:39:31;;;;;;;43.75;18.95;;;;;;;;;;5015839;28;20056;-78
2022/12/24 00:41:57;;;;;;;48.47;18.40;;;;;;;;;;5018439;28;20061;-77
2022/12/24 00:44:23;;;;;;;45.28;17.27;;;;;;;;;;5002235;28;20068;-78
2022/12/24 00:46:49;;;;;;;44.30;17.58;;;;;;;;;;5014963;28;20610;-78
2022/12/24 00:49:16;;;;;;;56.70;19.95;;;;;;;;;;5014475;28;20044;-78
2022/12/24 00:51:42;;;;;;;41.70;17.67;;;;;;;;;;5020559;28;20118;-78
2022/12/24 00:54:08;;;;;;;41.97;17.40;;;;;;;;;;5020573;28;20711;-78
2022/12/24 00:56:34;;;;;;;43.38;17.55;;;;;;;;;;5018663;28;20041;-78
2022/12/24 00:59:01;;;;;;;46.22;18.35;;;;;;;;;;5016276;28;20123;-77
2022/12/24 01:01:27;;;;;;;50.47;18.52;;;;;;;;;;5015960;28;20106;-77
2022/12/24 01:05:09;;;;;;;40.08;17.92;;;;;;;;;;5017584;28;20041;-77
2022/12/24 01:06:42;;;;;;;42.05;17.77;;;;;;;;;;5014229;28;20056;-78
2022/12/24 01:09:09;;;;;;;36.63;16.27;;;;;;;;;;5011455;28;20496;-78
2022/12/24 01:11:35;;;;;;;45.22;18.15;;;;;;;;;;5016845;28;20076;-78
2022/12/24 01:14:01;;;;;;;34.53;17.05;;;;;;;;;;5022885;28;20537;-78
2022/12/24 01:16:27;;;;;;;49.67;17.33;;;;;;;;;;5020917;28;20052;-77
2022/12/24 01:18:53;;;;;;;32.53;17.45;;;;;;;;;;5022204;28;20045;-78
2022/12/24 01:21:19;;;;;;;33.47;16.80;;;;;;;;;;5025158;28;20056;-77
2022/12/24 01:23:45;;;;;;;36.03;16.80;;;;;;;;;;5025307;28;20071;-77
2022/12/24 01:26:11;;;;;;;36.33;16.35;;;;;;;;;;5021943;28;20150;-78
2022/12/24 01:28:37;;;;;;;32.90;16.30;;;;;;;;;;5020116;28;20044;-78
2022/12/24 01:31:09;;;;;;;36.15;16.33;;;;;;;;;;5022151;28;20143;-77
2022/12/24 01:33:35;;;;;;;32.28;15.15;;;;;;;;;;5024494;28;20464;-77
2022/12/24 01:36:02;;;;;;;35.88;16.13;;;;;;;;;;5022811;28;20037;-78
2022/12/24 01:38:28;;;;;;;27.88;14.30;;;;;;;;;;5016880;28;20067;-78
2022/12/24 01:43:40;;;;;;;32.17;14.73;;;;;;;;;;5015831;28;21672;-78
2022/12/24 01:46:18;;;;;;;32.75;14.90;;;;;;;;;;5015898;28;20052;-78
2022/12/24 01:48:47;;;;;;;28.80;14.23;;;;;;;;;;5018288;28;20044;-78
2022/12/24 01:51:22;;;;;;;30.55;15.02;;;;;;;;;;5017939;28;20056;-78
2022/12/24 01:53:51;;;;;;;28.15;14.82;;;;;;;;;;5014969;28;20046;-77
2022/12/24 01:56:18;;;;;;;31.85;15.82;;;;;;;;;;5017681;28;20042;-77
2022/12/24 01:58:46;;;;;;;31.88;15.55;;;;;;;;;;5010940;28;20379;-78
2022/12/24 02:01:12;;;;;;;30.25;14.68;;;;;;;;;;5010871;28;20052;-77
2022/12/24 02:03:38;;;;;;;35.90;15.77;;;;;;;;;;5011365;28;20060;-76
2022/12/24 02:06:05;;;;;;;31.25;15.30;;;;;;;;;;5016292;28;20056;-77
2022/12/24 02:08:38;;;;;;;34.08;16.75;;;;;;;;;;5015185;28;20065;-76
2022/12/24 02:11:17;;;;;;;34.85;15.73;;;;;;;;;;5018151;28;20056;-78
2022/12/24 02:13:45;;;;;;;48.58;17.02;;;;;;;;;;5017859;28;20171;-77
2022/12/24 02:16:31;;;;;;;44.45;17.85;;;;;;;;;;5017573;28;20048;-77
2022/12/24 02:19:07;;;;;;;43.53;18.48;;;;;;;;;;5016854;28;20159;-77
2022/12/24 02:21:47;;;;;;;48.90;17.77;;;;;;;;;;5016079;28;22223;-77
2022/12/24 02:24:32;;;;;;;43.15;16.90;;;;;;;;;;5018179;28;21589;-77
2022/12/24 02:26:58;;;;;;;43.65;17.80;;;;;;;;;;5018509;28;20033;-77
2022/12/24 02:29:47;;;;;;;51.97;19.65;;;;;;;;;;5016059;28;20039;-75
2022/12/24 02:32:36;;;;;;;48.97;19.05;;;;;;;;;;4998917;28;20110;-65
2022/12/24 02:35:09;;;;;;;50.72;19.33;;;;;;;;;;5016083;28;20053;-66
2022/12/24 02:37:37;;;;;;;51.63;17.63;;;;;;;;;;5012917;28;20471;-66
2022/12/24 02:40:08;;;;;;;51.78;19.90;;;;;;;;;;5014224;28;20071;-65
2022/12/24 02:42:37;;;;;;;53.88;19.13;;;;;;;;;;5011706;28;20048;-66
2022/12/24 02:45:14;;;;;;;51.50;19.00;;;;;;;;;;5009467;28;20052;-67
2022/12/24 02:47:42;;;;;;;48.83;19.25;;;;;;;;;;5012317;28;20566;-67
2022/12/24 02:50:09;;;;;;;52.50;18.67;;;;;;;;;;5011863;28;20049;-66
2022/12/24 02:52:36;;;;;;;54.60;18.63;;;;;;;;;;5013864;28;20083;-66
2022/12/24 02:55:04;;;;;;;60.05;20.63;;;;;;;;;;5011334;28;20041;-66
2022/12/24 02:57:39;;;;;;;59.45;20.48;;;;;;;;;;5004033;28;20183;-66
2022/12/24 03:00:06;;;;;;;69.53;20.30;;;;;;;;;;5008681;28;20062;-67
2022/12/24 03:02:35;;;;;;;64.05;19.77;;;;;;;;;;5011053;28;20049;-67
2022/12/24 03:05:18;;;;;;;76.35;21.75;;;;;;;;;;5010977;28;20481;-67
2022/12/24 03:07:56;;;;;;;58.97;19.45;;;;;;;;;;5012107;28;20119;-67
2022/12/24 03:10:34;;;;;;;58.50;20.15;;;;;;;;;;5008943;28;20123;-66
2022/12/24 03:13:04;;;;;;;54.40;19.73;;;;;;;;;;5009950;28;20507;-66
2022/12/24 03:15:31;;;;;;;59.72;20.70;;;;;;;;;;5011160;28;20037;-66
2022/12/24 03:17:59;;;;;;;62.38;20.67;;;;;;;;;;5009989;28;20131;-67
2022/12/24 03:20:28;;;;;;;64.88;20.70;;;;;;;;;;5008036;28;20669;-67
2022/12/24 03:22:54;;;;;;;61.13;19.48;;;;;;;;;;5009983;28;20080;-68
2022/12/24 03:25:23;;;;;;;59.10;20.05;;;;;;;;;;5014953;28;20481;-67
2022/12/24 03:27:49;;;;;;;65.65;20.50;;;;;;;;;;5014313;28;20067;-67
2022/12/24 03:30:17;;;;;;;58.28;19.58;;;;;;;;;;5014045;28;20053;-67
2022/12/24 03:32:43;;;;;;;56.90;19.27;;;;;;;;;;5017301;28;20056;-67
2022/12/24 03:35:10;;;;;;;62.65;20.40;;;;;;;;;;5009949;28;20049;-67
2022/12/24 03:37:37;;;;;;;61.55;19.90;;;;;;;;;;5013181;28;20040;-67
2022/12/24 03:40:04;;;;;;;55.30;20.80;;;;;;;;;;5014749;28;20535;-67
2022/12/24 03:42:30;;;;;;;74.40;20.73;;;;;;;;;;5014158;28;20595;-67
2022/12/24 03:44:56;;;;;;;72.53;20.33;;;;;;;;;;5011719;28;20523;-67
2022/12/24 03:47:22;;;;;;;54.80;20.00;;;;;;;;;;5013495;28;20101;-67
2022/12/24 03:49:48;;;;;;;48.15;19.30;;;;;;;;;;5006020;28;20789;-67
2022/12/24 03:52:14;;;;;;;43.33;18.70;;;;;;;;;;5007498;28;20045;-67
2022/12/24 03:54:40;;;;;;;50.35;20.67;;;;;;;;;;5009504;28;20136;-67
2022/12/24 03:57:06;;;;;;;62.25;20.45;;;;;;;;;;5007290;28;20135;-67
2022/12/24 03:59:32;;;;;;;53.90;20.10;;;;;;;;;;5008515;28;20761;-67
2022/12/24 04:01:58;;;;;;;39.85;19.27;;;;;;;;;;5008346;28;20485;-67
2022/12/24 04:04:25;;;;;;;59.30;20.17;;;;;;;;;;5005496;28;20050;-67
2022/12/24 04:06:51;;;;;;;44.92;19.38;;;;;;;;;;5009597;28;20046;-67
2022/12/24 04:09:17;;;;;;;65.50;20.67;;;;;;;;;;5009601;28;20133;-67
2022/12/24 04:11:43;;;;;;;47.85;20.13;;;;;;;;;;5009456;28;20192;-67
2022/12/24 04:14:09;;;;;;;61.35;21.13;;;;;;;;;;5013061;28;21142;-67
2022/12/24 04:16:35;;;;;;;45.85;19.92;;;;;;;;;;5010151;28;20091;-67
2022/12/24 04:19:01;;;;;;;60.00;21.08;;;;;;;;;;5001386;28;20110;-66
2022/12/24 04:21:27;;;;;;;53.88;21.35;;;;;;;;;;5010726;28;20133;-67
2022/12/24 04:23:53;;;;;;;45.58;19.80;;;;;;;;;;5007712;28;20055;-66
2022/12/24 04:26:19;;;;;;;49.53;19.52;;;;;;;;;;5008556;28;21038;-66
2022/12/24 04:28:45;;;;;;;44.28;18.80;;;;;;;;;;5003335;28;20476;-66
2022/12/24 04:31:13;;;;;;;48.58;20.45;;;;;;;;;;5001713;28;20066;-67
2022/12/24 04:33:39;;;;;;;48.83;21.40;;;;;;;;;;5000898;28;20037;-67
2022/12/24 04:36:07;;;;;;;50.28;21.20;;;;;;;;;;5002800;28;20102;-67
2022/12/24 04:38:33;;;;;;;54.65;21.95;;;;;;;;;;5001672;28;20095;-67
2022/12/24 04:41:03;;;;;;;50.22;22.60;;;;;;;;;;4984922;28;21585;-67
2022/12/24 04:43:29;;;;;;;56.33;24.85;;;;;;;;;;5004320;28;20765;-67
2022/12/24 04:45:55;;;;;;;55.90;24.08;;;;;;;;;;5012472;28;20669;-67
2022/12/24 04:48:21;;;;;;;53.58;24.90;;;;;;;;;;5010574;28;20044;-65
2022/12/24 04:50:48;;;;;;;49.72;22.90;;;;;;;;;;5012549;28;20041;-68
2022/12/24 04:53:14;;;;;;;56.03;24.15;;;;;;;;;;5011625;28;21559;-66
2022/12/24 04:55:44;;;;;;;57.42;24.58;;;;;;;;;;5012020;28;20038;-66
2022/12/24 04:58:10;;;;;;;53.53;23.88;;;;;;;;;;5007342;28;20028;-66
2022/12/24 05:00:36;;;;;;;60.05;26.27;;;;;;;;;;4996200;28;20783;-66
2022/12/24 05:03:02;;;;;;;61.35;26.63;;;;;;;;;;4997216;28;20168;-66
2022/12/24 05:05:28;;;;;;;58.92;27.38;;;;;;;;;;5002040;28;21733;-66
2022/12/24 05:07:54;;;;;;;65.85;26.67;;;;;;;;;;5002809;28;20095;-66
2022/12/24 05:10:21;;;;;;;62.70;26.80;;;;;;;;;;5007340;28;20477;-66
2022/12/24 05:12:48;;;;;;;60.53;25.90;;;;;;;;;;5002456;28;20045;-67
2022/12/24 05:15:14;;;;;;;59.85;26.65;;;;;;;;;;5001996;28;20045;-67
2022/12/24 05:17:40;;;;;;;60.17;26.38;;;;;;;;;;4999660;28;20044;-66
2022/12/24 05:20:07;;;;;;;59.22;25.90;;;;;;;;;;5010516;28;20039;-67
2022/12/24 05:28:02;;;;;;;62.28;23.83;;;;;;;;;;5008964;28;20056;-68
2022/12/24 05:30:28;;;;;;;67.95;24.08;;;;;;;;;;5008383;28;20045;-68
2022/12/24 05:32:55;;;;;;;53.17;21.55;;;;;;;;;;5011449;28;20052;-68
2022/12/24 05:35:21;;;;;;;61.38;22.38;;;;;;;;;;5012540;28;20041;-68
2022/12/24 05:37:47;;;;;;;63.58;21.25;;;;;;;;;;5009958;28;20059;-67
2022/12/24 05:40:13;;;;;;;46.03;20.70;;;;;;;;;;4999719;28;20102;-68
2022/12/24 05:42:39;;;;;;;52.08;20.23;;;;;;;;;;5007693;28;20060;-68
2022/12/24 05:45:06;;;;;;;57.25;20.45;;;;;;;;;;5010449;28;20044;-67
2022/12/24 05:47:32;;;;;;;60.03;18.80;;;;;;;;;;5010565;28;20037;-68
2022/12/24 05:49:58;;;;;;;49.70;18.08;;;;;;;;;;5012225;28;20041;-67
2022/12/24 05:52:24;;;;;;;56.20;17.77;;;;;;;;;;5012006;28;20052;-68
2022/12/24 05:54:50;;;;;;;48.00;15.50;;;;;;;;;;5011079;28;20057;-67
2022/12/24 05:57:16;;;;;;;47.58;14.57;;;;;;;;;;5008232;28;21697;-68
2022/12/24 05:59:42;;;;;;;51.60;12.55;;;;;;;;;;5010604;28;20072;-67
2022/12/24 06:02:08;;;;;;;57.75;13.18;;;;;;;;;;5012050;28;20053;-67
2022/12/24 06:04:34;;;;;;;44.33;10.98;;;;;;;;;;5011056;28;20049;-67
2022/12/24 06:07:00;;;;;;;39.80;10.00;;;;;;;;;;4996055;28;20392;-66
2022/12/24 06:09:26;;;;;;;44.25;8.90;;;;;;;;;;5010769;28;20056;-66
2022/12/24 06:11:52;;;;;;;50.03;9.02;;;;;;;;;;5011481;28;20048;-67
2022/12/24 06:14:18;;;;;;;37.33;7.82;;;;;;;;;;5013562;28;20041;-66
2022/12/24 06:16:44;;;;;;;55.50;8.65;;;;;;;;;;5012248;28;20048;-67
2022/12/24 06:19:10;;;;;;;46.10;8.07;;;;;;;;;;5020926;28;20257;-67
2022/12/24 06:21:37;;;;;;;60.78;9.95;;;;;;;;;;5016300;28;20051;-67
2022/12/24 06:24:03;;;;;;;32.03;5.72;;;;;;;;;;5019542;28;20648;-67
2022/12/24 06:26:29;;;;;;;43.25;6.40;;;;;;;;;;5020652;28;20045;-68
2022/12/24 06:28:55;;;;;;;62.42;7.43;;;;;;;;;;5017499;28;20549;-67
2022/12/24 06:31:22;;;;;;;55.13;7.22;;;;;;;;;;5018200;28;20264;-67
2022/12/24 06:33:49;;;;;;;50.13;7.07;;;;;;;;;;5018177;28;20045;-67
2022/12/24 06:36:17;;;;;;;57.60;6.90;;;;;;;;;;5018392;28;20041;-67
2022/12/24 06:38:43;;;;;;;64.78;7.90;;;;;;;;;;5018226;28;20200;-66
2022/12/24 06:41:09;;;;;;;47.88;7.13;;;;;;;;;;5007915;28;20057;-66
2022/12/24 06:43:35;;;;;;;37.50;5.85;;;;;;;;;;5015075;28;20693;-67
2022/12/24 06:46:01;;;;;;;47.05;6.38;;;;;;;;;;5021885;28;20048;-67
2022/12/24 06:48:27;;;;;;;61.40;7.55;;;;;;;;;;5018597;28;20106;-67
2022/12/24 06:50:54;;;;;;;53.38;8.40;;;;;;;;;;5023092;28;20041;-68
2022/12/24 06:53:20;;;;;;;86.80;9.25;;;;;;;;;;5025000;28;20044;-68
2022/12/24 06:55:46;;;;;;;44.40;6.85;;;;;;;;;;5024294;28;20175;-68
2022/12/24 06:58:12;;;;;;;59.97;7.25;;;;;;;;;;5020883;28;20051;-68
2022/12/24 07:00:38;;;;;;;54.40;8.32;;;;;;;;;;5019105;28;20510;-67
2022/12/24 07:03:04;;;;;;;63.13;8.95;;;;;;;;;;5013676;28;20033;-67
2022/12/24 07:05:30;;;;;;;65.63;9.07;;;;;;;;;;5015694;28;20092;-66
2022/12/24 07:07:56;;;;;;;78.75;8.70;;;;;;;;;;5011722;28;21558;-67
2022/12/24 07:10:22;;;;;;;66.80;10.30;;;;;;;;;;5016532;28;20068;-66
2022/12/24 07:12:49;;;;;;;54.80;7.00;;;;;;;;;;4998278;28;20049;-65
2022/12/24 07:15:15;;;;;;;51.92;7.95;;;;;;;;;;5015853;28;20102;-65
2022/12/24 07:17:42;;;;;;;56.08;6.00;;;;;;;;;;5012321;28;20059;-65
2022/12/24 07:20:10;;;;;;;52.92;7.00;;;;;;;;;;5016417;28;20044;-66
2022/12/24 07:22:36;;;;;;;50.35;7.03;;;;;;;;;;5020061;28;20053;-66
2022/12/24 07:25:02;;;;;;;62.20;7.40;;;;;;;;;;5015613;28;20045;-66
2022/12/24 07:27:28;;;;;;;59.75;7.60;;;;;;;;;;5024046;28;20034;-65
2022/12/24 07:29:54;;;;;;;56.20;7.38;;;;;;;;;;5018515;28;20144;-66
2022/12/24 07:32:20;;;;;;;56.25;8.07;;;;;;;;;;5015832;28;20227;-66
2022/12/24 07:34:46;;;;;;;53.83;6.97;;;;;;;;;;5020355;28;20041;-66
2022/12/24 07:37:12;;;;;;;56.83;6.38;;;;;;;;;;5017908;28;20125;-66
2022/12/24 07:39:38;;;;;;;51.17;8.13;;;;;;;;;;5020725;28;20194;-66
2022/12/24 07:42:06;;;;;;;54.90;7.28;;;;;;;;;;5020018;28;20049;-66
2022/12/24 07:44:33;;;;;;;55.28;6.75;;;;;;;;;;5019447;28;20041;-66
2022/12/24 07:46:59;;;;;;;65.40;10.07;;;;;;;;;;5022272;28;21574;-67
2022/12/24 07:49:25;;;;;;;51.83;7.97;;;;;;;;;;5019822;28;20976;-67
2022/12/24 07:51:51;;;;;;;55.80;7.20;;;;;;;;;;5019159;28;20207;-66
2022/12/24 07:54:17;;;;;;;59.70;7.35;;;;;;;;;;5014741;28;20107;-66
2022/12/24 07:56:43;;;;;;;41.20;7.00;;;;;;;;;;5012314;28;20483;-66
2022/12/24 07:59:12;;;;;;;57.70;7.78;;;;;;;;;;5007492;28;20083;-66
2022/12/24 08:01:38;;;;;;;60.25;6.75;;;;;;;;;;5014395;28;20056;-67
2022/12/24 08:04:05;;;;;;;61.85;8.30;;;;;;;;;;5015383;28;20038;-66
2022/12/24 08:06:31;;;;;;;60.47;7.53;;;;;;;;;;5010975;28;20064;-67
2022/12/24 08:08:57;;;;;;;69.90;7.72;;;;;;;;;;5009400;28;20037;-66
2022/12/24 08:11:23;;;;;;;52.83;7.05;;;;;;;;;;5008811;28;20049;-67
2022/12/24 08:13:49;;;;;;;62.65;7.20;;;;;;;;;;5007554;28;20060;-66
2022/12/24 08:16:15;;;;;;;54.70;6.30;;;;;;;;;;5013080;28;22071;-66
2022/12/24 08:18:41;;;;;;;51.05;6.57;;;;;;;;;;4998628;28;20401;-65
2022/12/24 08:21:08;;;;;;;44.63;6.57;;;;;;;;;;5011653;28;20051;-66
2022/12/24 08:23:34;;;;;;;61.58;7.18;;;;;;;;;;5014359;28;20409;-66
2022/12/24 08:26:00;;;;;;;69.65;10.50;;;;;;;;;;5014205;28;20063;-66
2022/12/24 08:28:26;;;;;;;47.67;8.55;;;;;;;;;;5013439;28;20572;-66
2022/12/24 08:30:53;;;;;;;53.60;8.93;;;;;;;;;;5017555;28;20055;-66
2022/12/24 08:33:19;;;;;;;53.45;8.88;;;;;;;;;;5018789;28;20088;-64
2022/12/24 08:35:49;;;;;;;43.92;9.20;;;;;;;;;;5020476;28;20045;-66
2022/12/24 08:38:15;;;;;;;56.85;9.98;;;;;;;;;;5014542;28;20063;-67
2022/12/24 08:40:41;;;;;;;46.45;7.25;;;;;;;;;;5013083;28;20054;-66
2022/12/24 08:43:09;;;;;;;46.67;8.68;;;;;;;;;;5017993;28;20170;-65
2022/12/24 08:45:35;;;;;;;67.68;9.20;;;;;;;;;;5021000;28;20060;-66
2022/12/24 08:48:01;;;;;;;50.58;8.48;;;;;;;;;;5017158;28;20045;-67
2022/12/24 08:50:27;;;;;;;50.50;7.97;;;;;;;;;;5019984;28;20049;-67
2022/12/24 08:52:53;;;;;;;53.05;10.50;;;;;;;;;;5025386;28;22121;-65
2022/12/24 08:55:20;;;;;;;61.65;8.43;;;;;;;;;;5017582;28;20632;-66
2022/12/24 08:57:46;;;;;;;41.83;7.55;;;;;;;;;;5018585;28;20124;-66
2022/12/24 09:00:12;;;;;;;50.30;7.47;;;;;;;;;;4999786;28;20048;-66
2022/12/24 09:02:38;;;;;;;40.58;7.75;;;;;;;;;;5018506;28;20097;-67
2022/12/24 09:05:05;;;;;;;46.80;7.75;;;;;;;;;;5018925;28;20056;-66
2022/12/24 09:07:31;;;;;;;48.65;6.78;;;;;;;;;;5017585;28;20053;-66
2022/12/24 09:09:57;;;;;;;50.22;6.32;;;;;;;;;;5016849;28;20083;-67
2022/12/24 09:12:23;;;;;;;46.85;7.25;;;;;;;;;;5019496;28;20173;-66
2022/12/24 09:14:53;;;;;;;43.17;6.38;;;;;;;;;;5013178;28;20186;-64
2022/12/24 09:17:19;;;;;;;47.35;8.10;;;;;;;;;;5008760;28;20069;-66
2022/12/24 09:19:46;;;;;;;54.28;6.68;;;;;;;;;;5008421;28;20064;-66
2022/12/24 09:22:12;;;;;;;40.90;6.65;;;;;;;;;;5007650;28;20045;-65
2022/12/24 09:24:38;;;;;;;50.03;8.13;;;;;;;;;;5011001;28;20405;-65
2022/12/24 09:27:04;;;;;;;37.83;7.40;;;;;;;;;;5007083;28;20425;-65
2022/12/24 09:29:30;;;;;;;58.80;8.95;;;;;;;;;;5008182;28;20194;-65
2022/12/24 09:31:56;;;;;;;41.72;6.53;;;;;;;;;;5008516;28;20048;-65
2022/12/24 09:34:23;;;;;;;50.13;6.07;;;;;;;;;;5013404;28;20041;-65
2022/12/24 09:36:50;;;;;;;52.13;7.75;;;;;;;;;;5009169;28;20052;-66
2022/12/24 09:39:16;;;;;;;43.35;8.10;;;;;;;;;;5011739;28;20059;-66
2022/12/24 09:41:50;;;;;;;50.70;7.95;;;;;;;;;;5012309;28;20492;-65
2022/12/24 09:44:23;;;;;;;51.77;7.50;;;;;;;;;;5015675;28;20052;-66
2022/12/24 09:46:49;;;;;;;54.83;8.10;;;;;;;;;;5014658;28;20044;-66
2022/12/24 09:49:21;;;;;;;55.92;9.90;;;;;;;;;;5012821;28;20520;-66
2022/12/24 09:51:53;;;;;;;45.53;7.80;;;;;;;;;;5008231;28;20049;-66
2022/12/24 09:54:28;;;;;;;41.13;6.20;;;;;;;;;;5014686;28;21244;-67
2022/12/24 09:56:54;;;;;;;46.78;7.05;;;;;;;;;;5012099;28;20041;-66
2022/12/24 09:59:22;;;;;;;48.47;7.78;;;;;;;;;;5013966;28;20148;-66
2022/12/24 10:01:50;;;;;;;52.70;8.23;;;;;;;;;;5015357;28;20127;-64
2022/12/24 10:04:18;;;;;;;41.13;7.80;;;;;;;;;;5016901;28;20064;-65
2022/12/24 10:06:47;;;;;;;42.00;7.32;;;;;;;;;;5014271;28;20049;-66
2022/12/24 10:09:24;;;;;;;42.05;8.15;;;;;;;;;;5012598;28;20150;-65
2022/12/24 10:12:00;;;;;;;46.58;8.50;;;;;;;;;;5016132;28;20380;-66
2022/12/24 10:14:45;;;;;;;45.38;6.55;;;;;;;;;;5016783;28;20040;-65
2022/12/24 10:17:14;;;;;;;38.88;6.65;;;;;;;;;;5016508;28;20123;-65
2022/12/24 10:19:46;;;;;;;45.92;6.90;;;;;;;;;;5013530;28;20179;-66
2022/12/24 10:22:31;;;;;;;48.40;6.25;;;;;;;;;;5011206;28;20044;-66
2022/12/24 10:25:20;;;;;;;38.15;7.47;;;;;;;;;;5015573;28;20882;-65
2022/12/24 10:27:46;;;;;;;44.70;8.23;;;;;;;;;;5012990;28;20049;-66
2022/12/24 10:30:17;;;;;;;44.83;7.85;;;;;;;;;;5004773;28;20580;-65
2022/12/24 10:32:43;;;;;;;52.38;7.78;;;;;;;;;;5018092;28;20045;-65
2022/12/24 10:35:15;;;;;;;43.75;7.25;;;;;;;;;;5019136;28;20041;-75
2022/12/24 10:37:47;;;;;;;43.35;7.03;;;;;;;;;;5012347;28;20045;-73
2022/12/24 10:40:20;;;;;;;41.08;7.00;;;;;;;;;;5012342;28;20145;-72
2022/12/24 10:42:46;;;;;;;51.75;8.05;;;;;;;;;;5011318;28;20132;-73
2022/12/24 10:45:20;;;;;;;44.30;7.82;;;;;;;;;;5011871;28;20048;-73
2022/12/24 10:47:47;;;;;;;45.15;7.10;;;;;;;;;;5014439;28;20076;-73
2022/12/24 10:50:22;;;;;;;42.83;7.32;;;;;;;;;;5014238;28;20221;-73
2022/12/24 10:52:50;;;;;;;45.88;6.78;;;;;;;;;;5016546;28;20042;-73
2022/12/24 10:55:16;;;;;;;46.55;7.05;;;;;;;;;;5016732;28;20366;-73
2022/12/24 10:57:43;;;;;;;45.47;7.75;;;;;;;;;;5010612;28;20336;-73
2022/12/24 11:00:27;;;;;;;40.10;7.40;;;;;;;;;;5011565;28;20179;-73
2022/12/24 11:02:53;;;;;;;;;;;;;;;;;;5012363;28;20044;-73
2022/12/24 11:05:30;;;;;;;41.40;7.00;;;;;;;;;;5012338;28;19920;-74
2022/12/24 11:08:04;;;;;;;44.90;7.95;;;;;;;;;;5012930;28;20490;-72
2022/12/24 11:10:31;;;;;;;40.60;7.57;;;;;;;;;;5013486;28;20382;-73
2022/12/24 11:12:57;;;;;;;43.47;7.93;;;;;;;;;;5013430;28;20381;-73
2022/12/24 11:15:25;;;;;;;59.20;9.88;;;;;;;;;;5008519;28;20160;-73
2022/12/24 11:18:04;;;;;;;49.40;7.68;;;;;;;;;;5009378;28;21493;-72
2022/12/24 11:20:31;;;;;;;38.97;7.28;;;;;;;;;;4993792;28;20048;-73
2022/12/24 11:22:58;;;;;;;37.75;7.55;;;;;;;;;;5011167;28;20041;-73
2022/12/24 11:25:27;;;;;;;41.97;8.18;;;;;;;;;;4993086;28;20044;-73
2022/12/24 11:27:54;;;;;;;37.08;7.90;;;;;;;;;;5011953;28;20053;-73
2022/12/24 11:30:22;;;;;;;39.65;6.80;;;;;;;;;;5010768;28;21689;-73
2022/12/24 11:33:00;;;;;;;42.60;8.25;;;;;;;;;;4994495;28;20484;-73
2022/12/24 11:35:28;;;;;;;44.75;7.38;;;;;;;;;;5012690;28;20104;-73
2022/12/24 11:38:00;;;;;;;50.60;9.90;;;;;;;;;;5005932;28;20152;-73
2022/12/24 11:40:32;;;;;;;47.38;9.25;;;;;;;;;;4994275;28;20107;-73
2022/12/24 11:42:59;;;;;;;46.13;6.80;;;;;;;;;;5008602;28;20045;-71
2022/12/24 11:45:26;;;;;;;33.17;6.15;;;;;;;;;;5012983;28;20409;-72
2022/12/24 11:47:53;;;;;;;50.10;8.23;;;;;;;;;;5008257;28;20041;-72
2022/12/24 11:50:19;;;;;;;41.17;7.45;;;;;;;;;;5017683;28;20053;-72
2022/12/24 11:53:08;;;;;;;38.58;7.43;;;;;;;;;;5016762;28;20033;-73
2022/12/24 11:55:45;;;;;;;31.33;6.35;;;;;;;;;;5017965;28;20494;-73
2022/12/24 11:58:11;;;;;;;43.67;8.95;;;;;;;;;;4998147;28;20122;-71
2022/12/24 12:00:38;;;;;;;33.03;6.38;;;;;;;;;;5012775;28;20164;-73
2022/12/24 12:03:12;;;;;;;47.38;7.75;;;;;;;;;;5007789;28;20049;-73
2022/12/24 12:05:38;;;;;;;30.25;6.28;;;;;;;;;;5014128;28;20437;-73
2022/12/24 12:08:10;;;;;;;45.60;8.25;;;;;;;;;;5007051;28;20044;-73
2022/12/24 12:10:39;;;;;;;30.67;5.95;;;;;;;;;;5027408;28;20052;-71
2022/12/24 12:13:10;;;;;;;37.08;6.55;;;;;;;;;;5016452;28;20073;-72
2022/12/24 12:16:02;;;;;;;33.35;4.97;;;;;;;;;;5008654;28;20179;-72
2022/12/24 12:18:32;;;;;;;39.97;6.72;;;;;;;;;;5009163;28;20496;-72
2022/12/24 12:21:01;;;;;;;29.35;6.10;;;;;;;;;;5012708;28;20075;-72
2022/12/24 12:23:36;;;;;;;30.30;5.25;;;;;;;;;;5004503;28;20298;-72
2022/12/24 12:26:14;;;;;;;34.05;4.85;;;;;;;;;;5006746;28;20983;-73
2022/12/24 12:28:43;;;;;;;33.00;4.88;;;;;;;;;;5003828;28;20250;-72
2022/12/24 12:31:13;;;;;;;34.58;4.90;;;;;;;;;;5005444;28;20087;-72
2022/12/24 12:33:42;;;;;;;27.88;4.50;;;;;;;;;;4994304;28;20049;-72
2022/12/24 12:36:09;;;;;;;20.95;4.47;;;;;;;;;;5008753;28;20102;-71
2022/12/24 12:38:36;;;;;;;25.95;4.68;;;;;;;;;;5010196;28;20037;-72
2022/12/24 12:41:25;;;;;;;19.67;3.42;;;;;;;;;;4989041;28;20148;-72
2022/12/24 12:44:09;;;;;;;31.77;4.75;;;;;;;;;;5013359;28;20627;-71
2022/12/24 12:46:48;;;;;;;30.83;4.88;;;;;;;;;;5015327;28;20052;-72
2022/12/24 12:49:24;;;;;;;41.70;4.90;;;;;;;;;;5015891;28;20045;-73
2022/12/24 12:51:58;;;;;;;36.85;5.00;;;;;;;;;;5015830;28;20041;-72
2022/12/24 12:54:40;;;;;;;26.67;4.10;;;;;;;;;;4995696;28;20112;-72
2022/12/24 12:57:08;;;;;;;27.38;4.88;;;;;;;;;;4997462;28;20493;-71
2022/12/24 12:59:41;;;;;;;23.98;5.65;;;;;;;;;;5015111;28;20045;-72
2022/12/24 13:02:10;;;;;;;22.33;3.65;;;;;;;;;;5012504;28;20044;-71
2022/12/24 13:04:57;;;;;;;18.08;3.08;;;;;;;;;;5016111;28;20044;-71
2022/12/24 13:07:26;;;;;;;21.33;3.70;;;;;;;;;;5012720;28;20045;-72
2022/12/24 13:10:07;;;;;;;19.15;3.50;;;;;;;;;;5015849;28;20512;-72
2022/12/24 13:12:52;;;;;;;25.08;3.63;;;;;;;;;;5019742;28;20041;-72
2022/12/24 13:15:33;;;;;;;21.70;3.50;;;;;;;;;;5038107;28;20486;-72
2022/12/24 13:18:18;;;;;;;15.10;2.95;;;;;;;;;;5018831;28;20055;-71
2022/12/24 13:20:49;;;;;;;20.38;3.88;;;;;;;;;;5023117;28;20128;-72
2022/12/24 13:23:22;;;;;;;19.83;4.10;;;;;;;;;;5005688;28;22009;-73
2022/12/24 13:25:56;;;;;;;16.80;3.30;;;;;;;;;;5011615;28;20485;-72
2022/12/24 13:28:22;;;;;;;22.05;4.28;;;;;;;;;;5012697;28;20045;-73
2022/12/24 13:30:49;;;;;;;25.80;3.92;;;;;;;;;;5002552;28;20045;-72
2022/12/24 13:33:41;;;;;;;21.92;3.75;;;;;;;;;;5020311;28;20044;-72
2022/12/24 13:36:17;;;;;;;27.17;5.13;;;;;;;;;;5014810;28;20210;-72
2022/12/24 13:38:46;;;;;;;30.52;5.32;;;;;;;;;;5001468;28;20045;-73
2022/12/24 13:41:34;;;;;;;25.50;4.20;;;;;;;;;;5000252;28;20048;-73
2022/12/24 13:44:21;;;;;;;25.25;4.68;;;;;;;;;;5013374;28;20087;-72
2022/12/24 13:46:58;;;;;;;29.08;4.25;;;;;;;;;;5011245;28;20131;-72
2022/12/24 13:49:27;;;;;;;34.00;4.78;;;;;;;;;;5012729;28;20131;-72
2022/12/24 13:52:08;;;;;;;19.63;4.00;;;;;;;;;;4996929;28;20041;-72
2022/12/24 13:54:37;;;;;;;27.27;4.50;;;;;;;;;;5013575;28;20053;-72
2022/12/24 13:57:22;;;;;;;29.85;4.70;;;;;;;;;;5018738;28;20048;-72
2022/12/24 13:59:54;;;;;;;23.58;4.05;;;;;;;;;;5004762;28;20045;-72
2022/12/24 14:02:21;;;;;;;30.48;4.47;;;;;;;;;;5016571;28;20057;-71
2022/12/24 14:04:49;;;;;;;25.88;4.38;;;;;;;;;;5019403;28;20056;-72
2022/12/24 14:07:18;;;;;;;27.38;4.43;;;;;;;;;;5020703;28;20120;-72
2022/12/24 14:09:49;;;;;;;22.63;4.25;;;;;;;;;;5020434;28;20045;-72
2022/12/24 14:12:28;;;;;;;23.70;4.32;;;;;;;;;;5016599;28;20049;-73
2022/12/24 14:14:56;;;;;;;23.85;4.40;;;;;;;;;;5011870;28;20622;-73
2022/12/24 14:17:26;;;;;;;26.58;3.88;;;;;;;;;;5016011;28;20053;-70
2022/12/24 14:19:59;;;;;;;18.95;4.10;;;;;;;;;;5018505;28;20052;-73
2022/12/24 14:22:28;;;;;;;30.67;5.13;;;;;;;;;;5013754;28;20967;-73
2022/12/24 14:25:00;;;;;;;21.60;4.30;;;;;;;;;;5017080;28;20048;-73
2022/12/24 14:27:42;;;;;;;26.08;4.15;;;;;;;;;;5017964;28;20037;-73
2022/12/24 14:30:16;;;;;;;22.83;3.70;;;;;;;;;;5003618;28;20084;-73
2022/12/24 14:32:43;;;;;;;25.75;4.53;;;;;;;;;;5019122;28;20987;-73
2022/12/24 14:35:19;;;;;;;25.20;5.55;;;;;;;;;;5016843;28;20526;-73
2022/12/24 14:37:47;;;;;;;26.20;5.45;;;;;;;;;;5015368;28;20080;-72
2022/12/24 14:40:25;;;;;;;21.95;4.22;;;;;;;;;;5017081;28;21680;-73
2022/12/24 14:43:07;;;;;;;22.75;5.75;;;;;;;;;;5014663;28;20053;-73